sensor_id;sensor_type;location;lat;lon;timestamp;pressure;altitude;pressure_sealevel;temperature;humidity
63808;BME280;49961;43.970;22.868;2022-12-29T00:00:37;102643.72;;;5.96;100.00
63808;BME280;49961;43.970;22.868;2022-12-29T00:01:37;102630.31;;;5.94;100.00
63808;BME280;49961;43.970;22.868;2022-12-29T00:02:38;102640.53;;;5.94;100.00
63808;BME280;49961;43.970;22.868;2022-12-29T00:03:38;102638.91;;;5.93;100.00
63808;BME280;49961;43.970;22.868;2022-12-29T00:04:39;102642.41;;;5.90;100.00
63808;BME280;49961;43.970;22.868;2022-12-29T00:05:39;102645.06;;;5.86;100.00
63808;BME280;49961;43.970;22.868;2022-12-29T00:06:40;102644.25;;;5.86;100.00
63808;BME280;49961;43.970;22.868;2022-12-29T00:07:41;102577.38;;;5.42;100.00
63808;BME280;49961;43.970;22.868;2022-12-29T00:08:41;102641.75;;;5.81;100.00
63808;BME280;49961;43.970;22.868;2022-12-29T00:09:41;102541.63;;;5.15;100.00
63808;BME280;49961;43.970;22.868;2022-12-29T00:10:42;102643.56;;;5.77;100.00
63808;BME280;49961;43.970;22.868;2022-12-29T00:11:42;102627.38;;;5.60;100.00
63808;BME280;49961;43.970;22.868;2022-12-29T00:12:43;102648.06;;;5.69;100.00
63808;BME280;49961;43.970;22.868;2022-12-29T00:14:02;102648.66;;;5.63;100.00
63808;BME280;49961;43.970;22.868;2022-12-29T00:15:21;102641.03;;;5.56;100.00
63808;BME280;49961;43.970;22.868;2022-12-29T00:16:44;102635.31;;;5.49;100.00
63808;BME280;49961;43.970;22.868;2022-12-29T00:17:45;102635.94;;;5.43;100.00
63808;BME280;49961;43.970;22.868;2022-12-29T00:18:45;102616.16;;;5.25;100.00
63808;BME280;49961;43.970;22.868;2022-12-29T00:19:46;102639.69;;;5.38;100.00
63808;BME280;49961;43.970;22.868;2022-12-29T00:21:05;102643.16;;;5.35;100.00
63808;BME280;49961;43.970;22.868;2022-12-29T00:22:24;102650.59;;;5.35;100.00
63808;BME280;49961;43.970;22.868;2022-12-29T00:23:43;102642.69;;;5.33;100.00
63808;BME280;49961;43.970;22.868;2022-12-29T00:25:03;102645.34;;;5.30;100.00
63808;BME280;49961;43.970;22.868;2022-12-29T00:26:22;102628.31;;;5.12;100.00
63808;BME280;49961;43.970;22.868;2022-12-29T00:27:41;102643.41;;;5.18;100.00
63808;BME280;49961;43.970;22.868;2022-12-29T00:29:01;102648.59;;;5.20;100.00
63808;BME280;49961;43.970;22.868;2022-12-29T00:30:21;102649.25;;;5.17;100.00
63808;BME280;49961;43.970;22.868;2022-12-29T00:31:41;102635.91;;;5.03;100.00
63808;BME280;49961;43.970;22.868;2022-12-29T00:33:00;102645.53;;;5.09;100.00
63808;BME280;49961;43.970;22.868;2022-12-29T00:34:19;102655.25;;;5.07;100.00
63808;BME280;49961;43.970;22.868;2022-12-29T00:35:40;102663.03;;;5.05;100.00
63808;BME280;49961;43.970;22.868;2022-12-29T00:36:44;102635.13;;;4.91;100.00
63808;BME280;49961;43.970;22.868;2022-12-29T00:37:46;102654.69;;;5.01;100.00
63808;BME280;49961;43.970;22.868;2022-12-29T00:39:08;102656.31;;;4.90;100.00
63808;BME280;49961;43.970;22.868;2022-12-29T00:40:28;102662.81;;;4.86;100.00
63808;BME280;49961;43.970;22.868;2022-12-29T00:41:48;102659.84;;;4.79;100.00
63808;BME280;49961;43.970;22.868;2022-12-29T00:43:07;102661.69;;;4.75;100.00
63808;BME280;49961;43.970;22.868;2022-12-29T00:44:26;102635.28;;;4.58;100.00
63808;BME280;49961;43.970;22.868;2022-12-29T00:45:26;102662.84;;;4.74;100.00
63808;BME280;49961;43.970;22.868;2022-12-29T00:46:27;102626.78;;;4.51;100.00
63808;BME280;49961;43.970;22.868;2022-12-29T00:47:27;102662.72;;;4.70;100.00
63808;BME280;49961;43.970;22.868;2022-12-29T00:48:27;102662.63;;;4.67;100.00
63808;BME280;49961;43.970;22.868;2022-12-29T00:49:47;102613.97;;;4.31;100.00
63808;BME280;49961;43.970;22.868;2022-12-29T00:50:47;102664.56;;;4.66;100.00
63808;BME280;49961;43.970;22.868;2022-12-29T00:51:48;102542.03;;;3.90;100.00
63808;BME280;49961;43.970;22.868;2022-12-29T00:52:49;102658.59;;;4.64;100.00
63808;BME280;49961;43.970;22.868;2022-12-29T00:53:49;102648.19;;;4.58;100.00
63808;BME280;49961;43.970;22.868;2022-12-29T00:54:49;102668.66;;;4.72;100.00
63808;BME280;49961;43.970;22.868;2022-12-29T00:55:50;102642.69;;;4.58;100.00
63808;BME280;49961;43.970;22.868;2022-12-29T00:56:51;102659.06;;;4.66;100.00
63808;BME280;49961;43.970;22.868;2022-12-29T00:57:52;102666.03;;;4.64;100.00
63808;BME280;49961;43.970;22.868;2022-12-29T00:58:52;102527.28;;;3.82;100.00
63808;BME280;49961;43.970;22.868;2022-12-29T00:59:53;102656.78;;;4.68;100.00
63808;BME280;49961;43.970;22.868;2022-12-29T01:01:04;102638.25;;;4.53;100.00
63808;BME280;49961;43.970;22.868;2022-12-29T01:02:05;102659.66;;;4.72;100.00
63808;BME280;49961;43.970;22.868;2022-12-29T01:03:05;102656.91;;;4.72;100.00
63808;BME280;49961;43.970;22.868;2022-12-29T01:04:07;102647.28;;;4.66;100.00
63808;BME280;49961;43.970;22.868;2022-12-29T01:05:08;102662.84;;;4.74;100.00
63808;BME280;49961;43.970;22.868;2022-12-29T01:06:10;102662.50;;;4.75;100.00
63808;BME280;49961;43.970;22.868;2022-12-29T01:07:10;102660.19;;;4.77;100.00
63808;BME280;49961;43.970;22.868;2022-12-29T01:08:11;102666.16;;;4.79;100.00
63808;BME280;49961;43.970;22.868;2022-12-29T01:09:11;102658.72;;;4.80;100.00
63808;BME280;49961;43.970;22.868;2022-12-29T01:10:30;102644.06;;;4.64;100.00
63808;BME280;49961;43.970;22.868;2022-12-29T01:11:30;102657.13;;;4.79;100.00
63808;BME280;49961;43.970;22.868;2022-12-29T01:12:33;102663.28;;;4.76;100.00
63808;BME280;49961;43.970;22.868;2022-12-29T01:13:43;102654.59;;;4.74;100.00
63808;BME280;49961;43.970;22.868;2022-12-29T01:14:44;102659.28;;;4.73;100.00
63808;BME280;49961;43.970;22.868;2022-12-29T01:15:50;102660.09;;;4.74;100.00
63808;BME280;49961;43.970;22.868;2022-12-29T01:16:51;102655.63;;;4.69;100.00
63808;BME280;49961;43.970;22.868;2022-12-29T01:17:51;102654.38;;;4.67;100.00
63808;BME280;49961;43.970;22.868;2022-12-29T01:18:52;102653.22;;;4.68;100.00
63808;BME280;49961;43.970;22.868;2022-12-29T01:19:52;102655.16;;;4.67;100.00
63808;BME280;49961;43.970;22.868;2022-12-29T01:21:01;102647.16;;;4.62;100.00
63808;BME280;49961;43.970;22.868;2022-12-29T01:22:01;102655.97;;;4.68;100.00
63808;BME280;49961;43.970;22.868;2022-12-29T01:23:02;102650.94;;;4.70;100.00
63808;BME280;49961;43.970;22.868;2022-12-29T01:24:03;102659.88;;;4.67;100.00
63808;BME280;49961;43.970;22.868;2022-12-29T01:25:04;102653.56;;;4.66;100.00
63808;BME280;49961;43.970;22.868;2022-12-29T01:26:10;102650.03;;;4.66;100.00
63808;BME280;49961;43.970;22.868;2022-12-29T01:27:10;102647.28;;;4.66;100.00
63808;BME280;49961;43.970;22.868;2022-12-29T01:28:10;102640.16;;;4.65;100.00
63808;BME280;49961;43.970;22.868;2022-12-29T01:29:11;102629.19;;;4.53;100.00
63808;BME280;49961;43.970;22.868;2022-12-29T01:30:12;102642.81;;;4.61;100.00
63808;BME280;49961;43.970;22.868;2022-12-29T01:31:14;102640.53;;;4.63;100.00
63808;BME280;49961;43.970;22.868;2022-12-29T01:32:14;102643.72;;;4.65;100.00
63808;BME280;49961;43.970;22.868;2022-12-29T01:33:15;102640.31;;;4.68;100.00
63808;BME280;49961;43.970;22.868;2022-12-29T01:34:15;102642.69;;;4.70;100.00
63808;BME280;49961;43.970;22.868;2022-12-29T01:35:16;102644.28;;;4.71;100.00
63808;BME280;49961;43.970;22.868;2022-12-29T01:36:17;102634.00;;;4.68;100.00
63808;BME280;49961;43.970;22.868;2022-12-29T01:37:17;102641.09;;;4.69;100.00
63808;BME280;49961;43.970;22.868;2022-12-29T01:38:18;102644.19;;;4.67;100.00
63808;BME280;49961;43.970;22.868;2022-12-29T01:39:18;102641.91;;;4.69;100.00
63808;BME280;49961;43.970;22.868;2022-12-29T01:40:19;102641.91;;;4.69;100.00
63808;BME280;49961;43.970;22.868;2022-12-29T01:41:20;102644.28;;;4.71;100.00
63808;BME280;49961;43.970;22.868;2022-12-29T01:42:24;102641.44;;;4.67;100.00
63808;BME280;49961;43.970;22.868;2022-12-29T01:43:58;102633.19;;;4.67;100.00
63808;BME280;49961;43.970;22.868;2022-12-29T01:45:12;102633.19;;;4.67;100.00
63808;BME280;49961;43.970;22.868;2022-12-29T01:47:37;102635.25;;;4.70;100.00
63808;BME280;49961;43.970;22.868;2022-12-29T01:48:38;102636.03;;;4.71;100.00
63808;BME280;49961;43.970;22.868;2022-12-29T01:49:39;102625.97;;;4.75;100.00
63808;BME280;49961;43.970;22.868;2022-12-29T01:50:42;102627.72;;;4.79;100.00
63808;BME280;49961;43.970;22.868;2022-12-29T01:51:51;102624.97;;;4.79;100.00
63808;BME280;49961;43.970;22.868;2022-12-29T01:53:02;102621.06;;;4.80;100.00
63808;BME280;49961;43.970;22.868;2022-12-29T01:54:09;102617.16;;;4.81;100.00
63808;BME280;49961;43.970;22.868;2022-12-29T01:55:12;102620.25;;;4.80;100.00
63808;BME280;49961;43.970;22.868;2022-12-29T01:56:16;102613.16;;;4.79;100.00
63808;BME280;49961;43.970;22.868;2022-12-29T01:57:21;102613.25;;;4.82;100.00
63808;BME280;49961;43.970;22.868;2022-12-29T01:58:28;102607.00;;;4.82;100.00
63808;BME280;49961;43.970;22.868;2022-12-29T01:59:36;102606.84;;;4.78;100.00
63808;BME280;49961;43.970;22.868;2022-12-29T02:00:38;102625.75;;;4.80;100.00
63808;BME280;49961;43.970;22.868;2022-12-29T02:01:39;102610.06;;;4.80;100.00
63808;BME280;49961;43.970;22.868;2022-12-29T02:02:45;102514.22;;;4.27;100.00
63808;BME280;49961;43.970;22.868;2022-12-29T02:03:47;102600.56;;;4.78;100.00
63808;BME280;49961;43.970;22.868;2022-12-29T02:04:49;102473.09;;;3.91;100.00
63808;BME280;49961;43.970;22.868;2022-12-29T02:05:57;102580.00;;;4.48;100.00
63808;BME280;49961;43.970;22.868;2022-12-29T02:07:02;102593.28;;;4.58;100.00
63808;BME280;49961;43.970;22.868;2022-12-29T02:08:05;102588.44;;;4.55;100.00
63808;BME280;49961;43.970;22.868;2022-12-29T02:09:05;102586.53;;;4.55;100.00
63808;BME280;49961;43.970;22.868;2022-12-29T02:10:06;102582.88;;;4.39;100.00
63808;BME280;49961;43.970;22.868;2022-12-29T02:11:07;102585.06;;;4.46;100.00
63808;BME280;49961;43.970;22.868;2022-12-29T02:12:07;102591.81;;;4.48;100.00
63808;BME280;49961;43.970;22.868;2022-12-29T02:13:08;102552.09;;;4.22;100.00
63808;BME280;49961;43.970;22.868;2022-12-29T02:14:12;102588.81;;;4.53;100.00
63808;BME280;49961;43.970;22.868;2022-12-29T02:15:13;102606.19;;;4.57;100.00
63808;BME280;49961;43.970;22.868;2022-12-29T02:30:40;102580.22;;;4.07;100.00
63808;BME280;49961;43.970;22.868;2022-12-29T02:31:56;102561.66;;;3.80;100.00
63808;BME280;49961;43.970;22.868;2022-12-29T02:33:26;102585.47;;;4.00;100.00
63808;BME280;49961;43.970;22.868;2022-12-29T02:36:06;102594.38;;;3.97;100.00
63808;BME280;49961;43.970;22.868;2022-12-29T02:40:13;102587.50;;;3.91;100.00
63808;BME280;49961;43.970;22.868;2022-12-29T02:42:45;102570.31;;;3.70;100.00
63808;BME280;49961;43.970;22.868;2022-12-29T02:44:08;102435.56;;;2.91;100.00
63808;BME280;49961;43.970;22.868;2022-12-29T02:45:26;102581.09;;;3.87;100.00
63808;BME280;49961;43.970;22.868;2022-12-29T02:46:46;102572.75;;;3.83;100.00
63808;BME280;49961;43.970;22.868;2022-12-29T02:50:38;102482.97;;;3.03;100.00
63808;BME280;49961;43.970;22.868;2022-12-29T02:52:54;102586.66;;;3.66;100.00
63808;BME280;49961;43.970;22.868;2022-12-29T02:53:57;102586.19;;;3.64;100.00
63808;BME280;49961;43.970;22.868;2022-12-29T02:55:16;102586.72;;;3.58;100.00
63808;BME280;49961;43.970;22.868;2022-12-29T02:56:17;102585.47;;;3.55;100.00
63808;BME280;49961;43.970;22.868;2022-12-29T02:58:22;102586.03;;;3.49;100.00
63808;BME280;49961;43.970;22.868;2022-12-29T02:59:23;102581.34;;;3.49;100.00
63808;BME280;49961;43.970;22.868;2022-12-29T03:00:24;102580.53;;;3.49;100.00
63808;BME280;49961;43.970;22.868;2022-12-29T03:05:48;102580.69;;;3.32;100.00
63808;BME280;49961;43.970;22.868;2022-12-29T03:07:48;102578.97;;;3.27;100.00
63808;BME280;49961;43.970;22.868;2022-12-29T03:09:52;102582.72;;;3.23;100.00
63808;BME280;49961;43.970;22.868;2022-12-29T03:12:38;102584.19;;;3.20;100.00
63808;BME280;49961;43.970;22.868;2022-12-29T03:14:08;102573.56;;;3.19;100.00
63808;BME280;49961;43.970;22.868;2022-12-29T03:15:34;102578.09;;;3.15;100.00
63808;BME280;49961;43.970;22.868;2022-12-29T03:17:03;102496.88;;;2.57;100.00
63808;BME280;49961;43.970;22.868;2022-12-29T03:19:40;102588.59;;;3.13;100.00
63808;BME280;49961;43.970;22.868;2022-12-29T03:21:02;102586.66;;;3.13;100.00
63808;BME280;49961;43.970;22.868;2022-12-29T03:22:05;102583.13;;;3.13;100.00
63808;BME280;49961;43.970;22.868;2022-12-29T03:23:27;102538.44;;;2.80;100.00
63808;BME280;49961;43.970;22.868;2022-12-29T03:24:38;102583.78;;;3.10;100.00
63808;BME280;49961;43.970;22.868;2022-12-29T03:25:44;102586.66;;;3.13;100.00
63808;BME280;49961;43.970;22.868;2022-12-29T03:26:49;102581.06;;;3.10;100.00
63808;BME280;49961;43.970;22.868;2022-12-29T03:28:01;102588.13;;;3.11;100.00
63808;BME280;49961;43.970;22.868;2022-12-29T03:29:01;102588.31;;;3.06;100.00
63808;BME280;49961;43.970;22.868;2022-12-29T03:30:04;102585.91;;;3.04;100.00
63808;BME280;49961;43.970;22.868;2022-12-29T03:31:07;102590.94;;;3.02;100.00
63808;BME280;49961;43.970;22.868;2022-12-29T03:32:09;102560.34;;;2.80;100.00
63808;BME280;49961;43.970;22.868;2022-12-29T03:33:16;102587.25;;;2.98;100.00
63808;BME280;49961;43.970;22.868;2022-12-29T03:34:20;102595.84;;;2.97;100.00
63808;BME280;49961;43.970;22.868;2022-12-29T03:35:24;102565.22;;;2.74;100.00
63808;BME280;49961;43.970;22.868;2022-12-29T03:36:35;102594.88;;;2.93;100.00
63808;BME280;49961;43.970;22.868;2022-12-29T03:37:41;102589.88;;;2.95;100.00
63808;BME280;49961;43.970;22.868;2022-12-29T03:38:47;102473.03;;;2.17;100.00
63808;BME280;49961;43.970;22.868;2022-12-29T03:39:50;102592.03;;;2.89;100.00
63808;BME280;49961;43.970;22.868;2022-12-29T03:40:59;102585.72;;;2.89;100.00
63808;BME280;49961;43.970;22.868;2022-12-29T03:42:07;102590.88;;;2.90;100.00
63808;BME280;49961;43.970;22.868;2022-12-29T03:43:10;102585.41;;;2.90;100.00
63808;BME280;49961;43.970;22.868;2022-12-29T03:44:13;102587.00;;;2.91;100.00
63808;BME280;49961;43.970;22.868;2022-12-29T03:45:13;102581.53;;;2.91;100.00
63808;BME280;49961;43.970;22.868;2022-12-29T03:46:14;102583.44;;;2.91;100.00
63808;BME280;49961;43.970;22.868;2022-12-29T03:47:15;102588.59;;;2.92;100.00
63808;BME280;49961;43.970;22.868;2022-12-29T03:48:15;102567.56;;;2.84;100.00
63808;BME280;49961;43.970;22.868;2022-12-29T03:49:16;102587.44;;;2.93;100.00
63808;BME280;49961;43.970;22.868;2022-12-29T03:50:16;102590.88;;;2.90;100.00
63808;BME280;49961;43.970;22.868;2022-12-29T03:51:16;102586.38;;;2.86;100.00
63808;BME280;49961;43.970;22.868;2022-12-29T03:52:17;102587.84;;;2.83;100.00
63808;BME280;49961;43.970;22.868;2022-12-29T03:53:18;102500.59;;;2.32;100.00
63808;BME280;49961;43.970;22.868;2022-12-29T03:54:18;102591.84;;;2.86;100.00
63808;BME280;49961;43.970;22.868;2022-12-29T03:55:19;102597.69;;;2.84;100.00
63808;BME280;49961;43.970;22.868;2022-12-29T03:56:19;102589.31;;;2.81;100.00
63808;BME280;49961;43.970;22.868;2022-12-29T03:57:19;102595.34;;;2.74;100.00
63808;BME280;49961;43.970;22.868;2022-12-29T03:58:20;102598.72;;;2.71;100.00
63808;BME280;49961;43.970;22.868;2022-12-29T03:59:20;102612.09;;;2.73;100.00
63808;BME280;49961;43.970;22.868;2022-12-29T04:00:21;102523.94;;;2.30;100.00
63808;BME280;49961;43.970;22.868;2022-12-29T04:01:21;102601.28;;;2.76;100.00
63808;BME280;49961;43.970;22.868;2022-12-29T04:02:22;102596.25;;;2.78;100.00
63808;BME280;49961;43.970;22.868;2022-12-29T04:03:23;102602.75;;;2.74;100.00
63808;BME280;49961;43.970;22.868;2022-12-29T04:04:24;102598.72;;;2.71;100.00
63808;BME280;49961;43.970;22.868;2022-12-29T04:05:24;102605.03;;;2.72;100.00
63808;BME280;49961;43.970;22.868;2022-12-29T04:06:25;102599.06;;;2.70;100.00
63808;BME280;49961;43.970;22.868;2022-12-29T04:07:25;102593.78;;;2.65;100.00
63808;BME280;49961;43.970;22.868;2022-12-29T04:08:26;102595.72;;;2.64;100.00
63808;BME280;49961;43.970;22.868;2022-12-29T04:09:26;102603.38;;;2.71;100.00
63808;BME280;49961;43.970;22.868;2022-12-29T04:10:26;102578.09;;;2.53;100.00
63808;BME280;49961;43.970;22.868;2022-12-29T04:11:27;102603.75;;;2.69;100.00
63808;BME280;49961;43.970;22.868;2022-12-29T04:12:27;102605.03;;;2.72;100.00
63808;BME280;49961;43.970;22.868;2022-12-29T04:13:28;102608.09;;;2.70;100.00
63808;BME280;49961;43.970;22.868;2022-12-29T04:14:28;102611.47;;;2.67;100.00
63808;BME280;49961;43.970;22.868;2022-12-29T04:15:29;102605.53;;;2.65;100.00
63808;BME280;49961;43.970;22.868;2022-12-29T04:16:29;102604.72;;;2.65;100.00
63808;BME280;49961;43.970;22.868;2022-12-29T04:17:29;102604.41;;;2.66;100.00
63808;BME280;49961;43.970;22.868;2022-12-29T04:18:30;102608.09;;;2.70;100.00
63808;BME280;49961;43.970;22.868;2022-12-29T04:19:30;102605.03;;;2.72;100.00
63808;BME280;49961;43.970;22.868;2022-12-29T04:20:31;102601.97;;;2.65;100.00
63808;BME280;49961;43.970;22.868;2022-12-29T04:21:50;102610.19;;;2.65;100.00
63808;BME280;49961;43.970;22.868;2022-12-29T04:23:00;102602.31;;;2.63;100.00
63808;BME280;49961;43.970;22.868;2022-12-29T04:24:01;102608.13;;;2.62;100.00
63808;BME280;49961;43.970;22.868;2022-12-29T04:25:01;102606.19;;;2.62;100.00
63808;BME280;49961;43.970;22.868;2022-12-29T04:26:02;102611.66;;;2.62;100.00
63808;BME280;49961;43.970;22.868;2022-12-29T04:27:03;102616.34;;;2.62;100.00
63808;BME280;49961;43.970;22.868;2022-12-29T04:28:03;102611.97;;;2.61;100.00
63808;BME280;49961;43.970;22.868;2022-12-29T04:29:04;102603.00;;;2.60;100.00
63808;BME280;49961;43.970;22.868;2022-12-29T04:30:04;102600.13;;;2.57;100.00
63808;BME280;49961;43.970;22.868;2022-12-29T04:31:05;102607.00;;;2.63;100.00
63808;BME280;49961;43.970;22.868;2022-12-29T04:32:05;102604.72;;;2.65;100.00
63808;BME280;49961;43.970;22.868;2022-12-29T04:33:06;102509.63;;;2.04;100.00
63808;BME280;49961;43.970;22.868;2022-12-29T04:34:07;102604.72;;;2.65;100.00
63808;BME280;49961;43.970;22.868;2022-12-29T04:35:07;102600.38;;;2.64;100.00
63808;BME280;49961;43.970;22.868;2022-12-29T04:36:08;102610.19;;;2.65;100.00
63808;BME280;49961;43.970;22.868;2022-12-29T04:37:09;102600.06;;;2.65;100.00
63808;BME280;49961;43.970;22.868;2022-12-29T04:38:09;102602.81;;;2.65;100.00
63808;BME280;49961;43.970;22.868;2022-12-29T04:39:10;102603.94;;;2.64;100.00
63808;BME280;49961;43.970;22.868;2022-12-29T04:40:11;102603.13;;;2.64;100.00
63808;BME280;49961;43.970;22.868;2022-12-29T04:41:11;102603.94;;;2.64;100.00
63808;BME280;49961;43.970;22.868;2022-12-29T04:42:12;102606.69;;;2.64;100.00
63808;BME280;49961;43.970;22.868;2022-12-29T04:43:13;102581.34;;;2.47;100.00
63808;BME280;49961;43.970;22.868;2022-12-29T04:44:13;102477.22;;;1.85;100.00
63808;BME280;49961;43.970;22.868;2022-12-29T04:45:14;102593.81;;;2.56;100.00
63808;BME280;49961;43.970;22.868;2022-12-29T04:46:14;102593.41;;;2.46;100.00
63808;BME280;49961;43.970;22.868;2022-12-29T04:47:15;102593.56;;;2.49;100.00
63808;BME280;49961;43.970;22.868;2022-12-29T04:48:16;102605.78;;;2.52;100.00
63808;BME280;49961;43.970;22.868;2022-12-29T04:49:16;102608.38;;;2.48;100.00
63808;BME280;49961;43.970;22.868;2022-12-29T04:50:16;102609.16;;;2.49;100.00
63808;BME280;49961;43.970;22.868;2022-12-29T04:51:17;102606.75;;;2.47;100.00
63808;BME280;49961;43.970;22.868;2022-12-29T04:52:17;102602.66;;;2.33;100.00
63808;BME280;49961;43.970;22.868;2022-12-29T04:53:18;102615.97;;;2.43;100.00
63808;BME280;49961;43.970;22.868;2022-12-29T04:54:18;102615.63;;;2.44;100.00
63808;BME280;49961;43.970;22.868;2022-12-29T04:55:19;102606.63;;;2.44;100.00
63808;BME280;49961;43.970;22.868;2022-12-29T04:56:19;102612.75;;;2.41;100.00
63808;BME280;49961;43.970;22.868;2022-12-29T04:57:20;102620.16;;;2.40;100.00
63808;BME280;49961;43.970;22.868;2022-12-29T04:58:20;102615.34;;;2.37;100.00
63808;BME280;49961;43.970;22.868;2022-12-29T04:59:21;102617.28;;;2.37;100.00
63808;BME280;49961;43.970;22.868;2022-12-29T05:00:21;102623.41;;;2.34;100.00
63808;BME280;49961;43.970;22.868;2022-12-29T05:01:21;102616.19;;;2.29;100.00
63808;BME280;49961;43.970;22.868;2022-12-29T05:02:22;102617.31;;;2.28;100.00
63808;BME280;49961;43.970;22.868;2022-12-29T05:03:22;102625.84;;;2.27;100.00
63808;BME280;49961;43.970;22.868;2022-12-29T05:04:23;102594.38;;;2.04;100.00
63808;BME280;49961;43.970;22.868;2022-12-29T05:05:23;102619.28;;;2.19;100.00
63808;BME280;49961;43.970;22.868;2022-12-29T05:06:24;102624.25;;;2.17;100.00
63808;BME280;49961;43.970;22.868;2022-12-29T05:07:24;102626.06;;;2.13;100.00
63808;BME280;49961;43.970;22.868;2022-12-29T05:08:25;102618.50;;;2.10;100.00
63808;BME280;49961;43.970;22.868;2022-12-29T05:09:25;102624.28;;;2.09;100.00
63808;BME280;49961;43.970;22.868;2022-12-29T05:10:26;102556.25;;;1.70;100.00
63808;BME280;49961;43.970;22.868;2022-12-29T05:11:26;102608.56;;;2.06;100.00
63808;BME280;49961;43.970;22.868;2022-12-29T05:12:33;102624.78;;;2.11;100.00
63808;BME280;49961;43.970;22.868;2022-12-29T05:13:33;102626.56;;;2.07;100.00
63808;BME280;49961;43.970;22.868;2022-12-29T05:14:34;102625.28;;;2.04;100.00
63808;BME280;49961;43.970;22.868;2022-12-29T05:15:34;102626.44;;;2.03;100.00
63808;BME280;49961;43.970;22.868;2022-12-29T05:16:35;102624.66;;;1.99;100.00
63808;BME280;49961;43.970;22.868;2022-12-29T05:19:14;102640.59;;;1.97;100.00
63808;BME280;49961;43.970;22.868;2022-12-29T05:20:15;102490.81;;;1.02;100.00
63808;BME280;49961;43.970;22.868;2022-12-29T05:21:15;102640.13;;;1.95;100.00
63808;BME280;49961;43.970;22.868;2022-12-29T05:22:16;102637.41;;;1.95;100.00
63808;BME280;49961;43.970;22.868;2022-12-29T05:23:16;102630.47;;;1.89;100.00
63808;BME280;49961;43.970;22.868;2022-12-29T05:24:17;102639.63;;;1.93;100.00
63808;BME280;49961;43.970;22.868;2022-12-29T05:25:17;102612.81;;;1.78;100.00
63808;BME280;49961;43.970;22.868;2022-12-29T05:26:18;102633.03;;;1.94;100.00
63808;BME280;49961;43.970;22.868;2022-12-29T05:27:18;102642.03;;;1.94;100.00
63808;BME280;49961;43.970;22.868;2022-12-29T05:28:19;102637.84;;;1.97;100.00
63808;BME280;49961;43.970;22.868;2022-12-29T05:29:19;102623.72;;;1.86;100.00
63808;BME280;49961;43.970;22.868;2022-12-29T05:30:20;102636.41;;;1.99;100.00
63808;BME280;49961;43.970;22.868;2022-12-29T05:31:20;102629.81;;;2.00;100.00
63808;BME280;49961;43.970;22.868;2022-12-29T05:32:21;102638.81;;;2.01;100.00
63808;BME280;49961;43.970;22.868;2022-12-29T05:33:21;102640.88;;;2.04;100.00
63808;BME280;49961;43.970;22.868;2022-12-29T05:34:21;102632.69;;;2.04;100.00
63808;BME280;49961;43.970;22.868;2022-12-29T05:35:22;102625.00;;;1.97;100.00
63808;BME280;49961;43.970;22.868;2022-12-29T05:36:22;102514.69;;;1.30;100.00
63808;BME280;49961;43.970;22.868;2022-12-29T05:37:23;102643.31;;;2.05;100.00
63808;BME280;49961;43.970;22.868;2022-12-29T05:38:23;102568.31;;;1.60;100.00
63808;BME280;49961;43.970;22.868;2022-12-29T05:39:24;102632.34;;;2.05;100.00
63808;BME280;49961;43.970;22.868;2022-12-29T05:40:24;102636.22;;;2.04;100.00
63808;BME280;49961;43.970;22.868;2022-12-29T05:41:25;102637.81;;;2.05;100.00
63808;BME280;49961;43.970;22.868;2022-12-29T05:42:25;102498.50;;;1.17;100.00
63808;BME280;49961;43.970;22.868;2022-12-29T05:43:26;102653.09;;;2.06;100.00
63808;BME280;49961;43.970;22.868;2022-12-29T05:44:26;102634.47;;;2.08;100.00
63808;BME280;49961;43.970;22.868;2022-12-29T05:45:27;102643.44;;;2.09;100.00
63808;BME280;49961;43.970;22.868;2022-12-29T05:46:28;102639.09;;;2.08;100.00
63808;BME280;49961;43.970;22.868;2022-12-29T05:47:28;102648.13;;;2.08;100.00
63808;BME280;49961;43.970;22.868;2022-12-29T05:48:28;102621.13;;;1.98;100.00
63808;BME280;49961;43.970;22.868;2022-12-29T05:49:29;102645.84;;;2.10;100.00
63808;BME280;49961;43.970;22.868;2022-12-29T05:50:29;102635.09;;;2.05;100.00
63808;BME280;49961;43.970;22.868;2022-12-29T05:53:26;102646.69;;;2.11;100.00
63808;BME280;49961;43.970;22.868;2022-12-29T05:54:27;102641.84;;;2.08;100.00
63808;BME280;49961;43.970;22.868;2022-12-29T05:55:27;102645.38;;;2.08;100.00
63808;BME280;49961;43.970;22.868;2022-12-29T05:56:28;102650.88;;;2.08;100.00
63808;BME280;49961;43.970;22.868;2022-12-29T05:57:28;102650.03;;;2.08;100.00
63808;BME280;49961;43.970;22.868;2022-12-29T05:58:29;102648.44;;;2.07;100.00
63808;BME280;49961;43.970;22.868;2022-12-29T05:59:29;102649.59;;;2.06;100.00
63808;BME280;49961;43.970;22.868;2022-12-29T06:00:29;102653.91;;;2.07;100.00
63808;BME280;49961;43.970;22.868;2022-12-29T06:01:30;102635.28;;;2.00;100.00
63808;BME280;49961;43.970;22.868;2022-12-29T06:02:30;102651.50;;;2.05;100.00
63808;BME280;49961;43.970;22.868;2022-12-29T06:03:31;102646.84;;;2.06;100.00
63808;BME280;49961;43.970;22.868;2022-12-29T06:04:31;102642.97;;;2.07;100.00
63808;BME280;49961;43.970;22.868;2022-12-29T06:05:32;102645.72;;;2.07;100.00
63808;BME280;49961;43.970;22.868;2022-12-29T06:06:32;102636.22;;;2.04;100.00
63808;BME280;49961;43.970;22.868;2022-12-29T06:07:32;102644.13;;;2.06;100.00
63808;BME280;49961;43.970;22.868;2022-12-29T06:08:33;102647.63;;;2.06;100.00
63808;BME280;49961;43.970;22.868;2022-12-29T06:09:33;102641.38;;;2.06;100.00